sensor_id;sensor_type;location;lat;lon;timestamp;pressure;altitude;pressure_sealevel;temperature
78369;BMP280;71113;43.092;-89.268;2023-09-19T15:32:20;98127.47;;;19.64
78369;BMP280;71113;43.092;-89.268;2023-09-19T15:34:47;98122.53;;;19.42
78369;BMP280;71113;43.092;-89.268;2023-09-19T15:37:12;98129.22;;;19.39
78369;BMP280;71113;43.092;-89.268;2023-09-19T15:39:38;98124.88;;;19.35
78369;BMP280;71113;43.092;-89.268;2023-09-19T15:42:04;98133.19;;;19.33
78369;BMP280;71113;43.092;-89.268;2023-09-19T15:44:29;98125.91;;;19.30
78369;BMP280;71113;43.092;-89.268;2023-09-19T15:46:56;98138.34;;;19.30
78369;BMP280;71113;43.092;-89.268;2023-09-19T15:49:22;98143.16;;;19.28
78369;BMP280;71113;43.092;-89.268;2023-09-19T15:51:48;98139.44;;;19.29
78369;BMP280;71113;43.092;-89.268;2023-09-19T15:54:14;98138.97;;;19.27
78369;BMP280;71113;43.092;-89.268;2023-09-19T15:56:43;98138.97;;;19.27
78369;BMP280;71113;43.092;-89.268;2023-09-19T15:59:09;98131.81;;;19.27
78369;BMP280;71113;43.092;-89.268;2023-09-19T16:01:35;98128.25;;;19.23
78369;BMP280;71113;43.092;-89.268;2023-09-19T16:04:02;98128.25;;;19.23
78369;BMP280;71113;43.092;-89.268;2023-09-19T16:06:28;98128.72;;;19.25
78369;BMP280;71113;43.092;-89.268;2023-09-19T16:08:55;98145.34;;;19.26
78369;BMP280;71113;43.092;-89.268;2023-09-19T16:11:21;98153.72;;;19.28
78369;BMP280;71113;43.092;-89.268;2023-09-19T16:13:47;98155.31;;;19.29
78369;BMP280;71113;43.092;-89.268;2023-09-19T16:16:13;98143.63;;;19.30
78369;BMP280;71113;43.092;-89.268;2023-09-19T16:18:53;98143.63;;;19.30
78369;BMP280;71113;43.092;-89.268;2023-09-19T16:21:23;98140.34;;;19.33
78369;BMP280;71113;43.092;-89.268;2023-09-19T16:23:51;98132.09;;;19.34
78369;BMP280;71113;43.092;-89.268;2023-09-19T16:26:19;98131.31;;;19.34
78369;BMP280;71113;43.092;-89.268;2023-09-19T16:28:46;98119.19;;;19.33
78369;BMP280;71113;43.092;-89.268;2023-09-19T16:31:12;98122.94;;;19.32
78369;BMP280;71113;43.092;-89.268;2023-09-19T16:33:39;98119.19;;;19.33
78369;BMP280;71113;43.092;-89.268;2023-09-19T16:36:09;98118.97;;;19.38
78369;BMP280;71113;43.092;-89.268;2023-09-19T16:38:36;98116.78;;;19.40
78369;BMP280;71113;43.092;-89.268;2023-09-19T16:41:02;98113.38;;;19.39
78369;BMP280;71113;43.092;-89.268;2023-09-19T16:43:29;98118.34;;;19.41
78369;BMP280;71113;43.092;-89.268;2023-09-19T16:45:59;98120.19;;;19.40
78369;BMP280;71113;43.092;-89.268;2023-09-19T16:48:25;98113.50;;;19.43
78369;BMP280;71113;43.092;-89.268;2023-09-19T16:50:51;98111.66;;;19.43
78369;BMP280;71113;43.092;-89.268;2023-09-19T16:53:17;98101.81;;;19.44
78369;BMP280;71113;43.092;-89.268;2023-09-19T16:55:46;98106.00;;;19.45
78369;BMP280;71113;43.092;-89.268;2023-09-19T16:58:15;98095.41;;;19.45
78369;BMP280;71113;43.092;-89.268;2023-09-19T17:00:40;98088.25;;;19.45
78369;BMP280;71113;43.092;-89.268;2023-09-19T17:03:08;98090.13;;;19.45
78369;BMP280;71113;43.092;-89.268;2023-09-19T17:05:36;98090.59;;;19.47
78369;BMP280;71113;43.092;-89.268;2023-09-19T17:08:04;98089.81;;;19.46
78369;BMP280;71113;43.092;-89.268;2023-09-19T17:10:30;98087.16;;;19.46
78369;BMP280;71113;43.092;-89.268;2023-09-19T17:12:58;98078.91;;;19.48
78369;BMP280;71113;43.092;-89.268;2023-09-19T17:15:23;98081.56;;;19.48
78369;BMP280;71113;43.092;-89.268;2023-09-19T17:17:49;98076.28;;;19.48
78369;BMP280;71113;43.092;-89.268;2023-09-19T17:20:15;98076.28;;;19.48
78369;BMP280;71113;43.092;-89.268;2023-09-19T17:22:41;98062.28;;;19.47
78369;BMP280;71113;43.092;-89.268;2023-09-19T17:25:07;98062.28;;;19.47
78369;BMP280;71113;43.092;-89.268;2023-09-19T17:27:33;98050.91;;;19.47
78369;BMP280;71113;43.092;-89.268;2023-09-19T17:29:58;98055.41;;;19.46
78369;BMP280;71113;43.092;-89.268;2023-09-19T17:32:24;98068.19;;;19.44
78369;BMP280;71113;43.092;-89.268;2023-09-19T17:34:50;98067.69;;;19.51
78369;BMP280;71113;43.092;-89.268;2023-09-19T17:37:16;98074.03;;;19.50
78369;BMP280;71113;43.092;-89.268;2023-09-19T17:39:41;98077.47;;;19.50
78369;BMP280;71113;43.092;-89.268;2023-09-19T17:42:08;98071.41;;;19.50
78369;BMP280;71113;43.092;-89.268;2023-09-19T17:44:38;98079.34;;;19.50
78369;BMP280;71113;43.092;-89.268;2023-09-19T17:47:04;98077.47;;;19.50
78369;BMP280;71113;43.092;-89.268;2023-09-19T17:49:29;98086.19;;;19.51
78369;BMP280;71113;43.092;-89.268;2023-09-19T17:51:55;98093.34;;;19.50
78369;BMP280;71113;43.092;-89.268;2023-09-19T17:54:21;98086.97;;;19.52
78369;BMP280;71113;43.092;-89.268;2023-09-19T17:57:05;98091.91;;;19.53
78369;BMP280;71113;43.092;-89.268;2023-09-19T17:59:30;98089.63;;;19.52
78369;BMP280;71113;43.092;-89.268;2023-09-19T18:01:56;98088.38;;;19.49
78369;BMP280;71113;43.092;-89.268;2023-09-19T18:04:22;98082.88;;;19.54
78369;BMP280;71113;43.092;-89.268;2023-09-19T18:06:47;98077.59;;;19.54
78369;BMP280;71113;43.092;-89.268;2023-09-19T18:09:14;98077.59;;;19.54
78369;BMP280;71113;43.092;-89.268;2023-09-19T18:11:42;98070.41;;;19.55
78369;BMP280;71113;43.092;-89.268;2023-09-19T18:14:08;98070.41;;;19.55
78369;BMP280;71113;43.092;-89.268;2023-09-19T18:16:35;98062.47;;;19.55
78369;BMP280;71113;43.092;-89.268;2023-09-19T18:19:02;98061.41;;;19.56
78369;BMP280;71113;43.092;-89.268;2023-09-19T18:21:28;98060.63;;;19.55
78369;BMP280;71113;43.092;-89.268;2023-09-19T18:23:57;98055.75;;;19.57
78369;BMP280;71113;43.092;-89.268;2023-09-19T18:26:23;98046.31;;;19.56
78369;BMP280;71113;43.092;-89.268;2023-09-19T18:28:51;98043.66;;;19.56
78369;BMP280;71113;43.092;-89.268;2023-09-19T18:31:17;98042.78;;;19.52
78369;BMP280;71113;43.092;-89.268;2023-09-19T18:33:45;98040.53;;;19.54
78369;BMP280;71113;43.092;-89.268;2023-09-19T18:36:14;98040.53;;;19.54
78369;BMP280;71113;43.092;-89.268;2023-09-19T18:38:40;98030.72;;;19.55
78369;BMP280;71113;43.092;-89.268;2023-09-19T18:41:09;98029.97;;;19.54
78369;BMP280;71113;43.092;-89.268;2023-09-19T18:43:35;98031.53;;;19.55
78369;BMP280;71113;43.092;-89.268;2023-09-19T18:46:02;98028.09;;;19.55
78369;BMP280;71113;43.092;-89.268;2023-09-19T18:48:30;98018.31;;;19.55
78369;BMP280;71113;43.092;-89.268;2023-09-19T18:50:56;98020.94;;;19.55
78369;BMP280;71113;43.092;-89.268;2023-09-19T18:53:22;98017.50;;;19.55
78369;BMP280;71113;43.092;-89.268;2023-09-19T18:55:47;98017.50;;;19.55
78369;BMP280;71113;43.092;-89.268;2023-09-19T18:58:14;98019.38;;;19.54
78369;BMP280;71113;43.092;-89.268;2023-09-19T19:00:40;98019.72;;;19.53
78369;BMP280;71113;43.092;-89.268;2023-09-19T19:03:06;98011.31;;;19.50
78369;BMP280;71113;43.092;-89.268;2023-09-19T19:05:31;98015.66;;;19.55
78369;BMP280;71113;43.092;-89.268;2023-09-19T19:08:00;98006.63;;;19.56
78369;BMP280;71113;43.092;-89.268;2023-09-19T19:10:26;98003.97;;;19.56
78369;BMP280;71113;43.092;-89.268;2023-09-19T19:12:52;97993.81;;;19.58
78369;BMP280;71113;43.092;-89.268;2023-09-19T19:15:18;97996.44;;;19.58
78369;BMP280;71113;43.092;-89.268;2023-09-19T19:17:43;97994.59;;;19.59
78369;BMP280;71113;43.092;-89.268;2023-09-19T19:20:09;97994.59;;;19.59
78369;BMP280;71113;43.092;-89.268;2023-09-19T19:22:35;97999.91;;;19.59
78369;BMP280;71113;43.092;-89.268;2023-09-19T19:25:02;97993.81;;;19.58
78369;BMP280;71113;43.092;-89.268;2023-09-19T19:27:29;97987.75;;;19.58
78369;BMP280;71113;43.092;-89.268;2023-09-19T19:29:56;97994.91;;;19.57
78369;BMP280;71113;43.092;-89.268;2023-09-19T19:32:21;97988.41;;;19.55
78369;BMP280;71113;43.092;-89.268;2023-09-19T19:34:51;97993.03;;;19.58
78369;BMP280;71113;43.092;-89.268;2023-09-19T19:37:17;97984.78;;;19.59
78369;BMP280;71113;43.092;-89.268;2023-09-19T19:39:43;97981.03;;;19.60
78369;BMP280;71113;43.092;-89.268;2023-09-19T19:42:08;97971.22;;;19.61
78369;BMP280;71113;43.092;-89.268;2023-09-19T19:44:34;97981.03;;;19.60
78369;BMP280;71113;43.092;-89.268;2023-09-19T19:47:00;97976.16;;;19.62
78369;BMP280;71113;43.092;-89.268;2023-09-19T19:49:27;97972.44;;;19.63
78369;BMP280;71113;43.092;-89.268;2023-09-19T19:51:52;97967.47;;;19.62
78369;BMP280;71113;43.092;-89.268;2023-09-19T19:54:19;97958.78;;;19.61
78369;BMP280;71113;43.092;-89.268;2023-09-19T19:56:44;97964.50;;;19.63
78369;BMP280;71113;43.092;-89.268;2023-09-19T19:59:10;97953.47;;;19.61
78369;BMP280;71113;43.092;-89.268;2023-09-19T20:01:38;97946.19;;;19.58
78369;BMP280;71113;43.092;-89.268;2023-09-19T20:04:04;97947.75;;;19.59
78369;BMP280;71113;43.092;-89.268;2023-09-19T20:06:30;97938.72;;;19.60
78369;BMP280;71113;43.092;-89.268;2023-09-19T20:08:55;97940.25;;;19.61
78369;BMP280;71113;43.092;-89.268;2023-09-19T20:11:21;97938.06;;;19.63
78369;BMP280;71113;43.092;-89.268;2023-09-19T20:13:55;97935.41;;;19.63
78369;BMP280;71113;43.092;-89.268;2023-09-19T20:16:20;97927.47;;;19.63
78369;BMP280;71113;43.092;-89.268;2023-09-19T20:18:46;97925.59;;;19.64
78369;BMP280;71113;43.092;-89.268;2023-09-19T20:21:12;97918.44;;;19.64
78369;BMP280;71113;43.092;-89.268;2023-09-19T20:23:40;97916.88;;;19.63
78369;BMP280;71113;43.092;-89.268;2023-09-19T20:26:07;97916.88;;;19.63
78369;BMP280;71113;43.092;-89.268;2023-09-19T20:28:33;97914.22;;;19.63
78369;BMP280;71113;43.092;-89.268;2023-09-19T20:31:04;97900.91;;;19.60
78369;BMP280;71113;43.092;-89.268;2023-09-19T20:33:32;97900.13;;;19.59
78369;BMP280;71113;43.092;-89.268;2023-09-19T20:35:58;97897.25;;;19.64
78369;BMP280;71113;43.092;-89.268;2023-09-19T20:38:24;97898.66;;;19.62
78369;BMP280;71113;43.092;-89.268;2023-09-19T20:40:50;97898.34;;;19.63
78369;BMP280;71113;43.092;-89.268;2023-09-19T20:43:16;97893.06;;;19.63
78369;BMP280;71113;43.092;-89.268;2023-09-19T20:45:42;97891.28;;;19.67
78369;BMP280;71113;43.092;-89.268;2023-09-19T20:48:09;97893.50;;;19.77
78369;BMP280;71113;43.092;-89.268;2023-09-19T20:50:36;97905.84;;;19.86
78369;BMP280;71113;43.092;-89.268;2023-09-19T20:53:02;97891.72;;;19.94
78369;BMP280;71113;43.092;-89.268;2023-09-19T20:55:28;97889.72;;;20.03
78369;BMP280;71113;43.092;-89.268;2023-09-19T20:57:55;97900.16;;;20.11
78369;BMP280;71113;43.092;-89.268;2023-09-19T21:00:20;97909.44;;;20.18
78369;BMP280;71113;43.092;-89.268;2023-09-19T21:02:48;97921.88;;;20.29
78369;BMP280;71113;43.092;-89.268;2023-09-19T21:05:14;97919.09;;;20.38
78369;BMP280;71113;43.092;-89.268;2023-09-19T21:07:40;97918.53;;;20.44
78369;BMP280;71113;43.092;-89.268;2023-09-19T21:10:08;97905.50;;;20.52
78369;BMP280;71113;43.092;-89.268;2023-09-19T21:12:34;97915.19;;;20.60
78369;BMP280;71113;43.092;-89.268;2023-09-19T21:15:00;97913.78;;;20.66
78369;BMP280;71113;43.092;-89.268;2023-09-19T21:17:26;97919.97;;;20.70
78369;BMP280;71113;43.092;-89.268;2023-09-19T21:19:52;97923.94;;;20.76
78369;BMP280;71113;43.092;-89.268;2023-09-19T21:22:17;97928.22;;;20.81
78369;BMP280;71113;43.092;-89.268;2023-09-19T21:24:46;97927.19;;;20.85
78369;BMP280;71113;43.092;-89.268;2023-09-19T21:27:12;97925.06;;;20.91
78369;BMP280;71113;43.092;-89.268;2023-09-19T21:29:40;97928.25;;;20.96
78369;BMP280;71113;43.092;-89.268;2023-09-19T21:32:05;97935.50;;;20.99
78369;BMP280;71113;43.092;-89.268;2023-09-19T21:34:31;97943.66;;;21.06
78369;BMP280;71113;43.092;-89.268;2023-09-19T21:36:57;97941.13;;;21.10
78369;BMP280;71113;43.092;-89.268;2023-09-19T21:39:22;97942.06;;;21.18
78369;BMP280;71113;43.092;-89.268;2023-09-19T21:41:48;97953.84;;;21.20
78369;BMP280;71113;43.092;-89.268;2023-09-19T21:44:13;97947.53;;;21.25
78369;BMP280;71113;43.092;-89.268;2023-09-19T21:46:39;97945.75;;;21.29
78369;BMP280;71113;43.092;-89.268;2023-09-19T21:49:05;97939.72;;;21.32
78369;BMP280;71113;43.092;-89.268;2023-09-19T21:51:30;97952.00;;;21.36
78369;BMP280;71113;43.092;-89.268;2023-09-19T21:53:56;97944.91;;;21.41
78369;BMP280;71113;43.092;-89.268;2023-09-19T21:56:28;97952.50;;;21.42
78369;BMP280;71113;43.092;-89.268;2023-09-19T21:58:54;97951.81;;;21.45
78369;BMP280;71113;43.092;-89.268;2023-09-19T22:01:20;97948.50;;;21.48
78369;BMP280;71113;43.092;-89.268;2023-09-19T22:03:53;97947.03;;;21.51
78369;BMP280;71113;43.092;-89.268;2023-09-19T22:06:19;97952.41;;;21.54
78369;BMP280;71113;43.092;-89.268;2023-09-19T22:08:49;97946.84;;;21.59
78369;BMP280;71113;43.092;-89.268;2023-09-19T22:11:18;97945.75;;;21.60
78369;BMP280;71113;43.092;-89.268;2023-09-19T22:13:45;97951.91;;;21.64
78369;BMP280;71113;43.092;-89.268;2023-09-19T22:16:11;97946.66;;;21.68
78369;BMP280;71113;43.092;-89.268;2023-09-19T22:18:39;97943.66;;;21.69
78369;BMP280;71113;43.092;-89.268;2023-09-19T22:21:05;97948.75;;;21.75
78369;BMP280;71113;43.092;-89.268;2023-09-19T22:23:38;97945.38;;;21.78
78369;BMP280;71113;43.092;-89.268;2023-09-19T22:26:07;97939.38;;;21.81
78369;BMP280;71113;43.092;-89.268;2023-09-19T22:28:33;97946.28;;;21.85
78369;BMP280;71113;43.092;-89.268;2023-09-19T22:31:03;97944.41;;;21.86
78369;BMP280;71113;43.092;-89.268;2023-09-19T22:33:34;97942.94;;;21.88
78369;BMP280;71113;43.092;-89.268;2023-09-19T22:36:03;97940.81;;;21.94
78369;BMP280;71113;43.092;-89.268;2023-09-19T22:38:31;97932.13;;;21.97
78369;BMP280;71113;43.092;-89.268;2023-09-19T22:40:56;97930.66;;;21.99
78369;BMP280;71113;43.092;-89.268;2023-09-19T22:43:27;97923.47;;;22.00
78369;BMP280;71113;43.092;-89.268;2023-09-19T22:45:59;97925.47;;;22.03
78369;BMP280;71113;43.092;-89.268;2023-09-19T22:48:34;97925.84;;;22.05
78369;BMP280;71113;43.092;-89.268;2023-09-19T22:51:01;97927.03;;;22.08
78369;BMP280;71113;43.092;-89.268;2023-09-19T22:53:38;97926.72;;;22.09
78369;BMP280;71113;43.092;-89.268;2023-09-19T22:56:10;97923.03;;;22.14
78369;BMP280;71113;43.092;-89.268;2023-09-19T22:58:40;97924.56;;;22.15
78369;BMP280;71113;43.092;-89.268;2023-09-19T23:01:12;97927.66;;;22.17
78369;BMP280;71113;43.092;-89.268;2023-09-19T23:04:04;97923.09;;;22.17
78369;BMP280;71113;43.092;-89.268;2023-09-19T23:06:46;97921.28;;;22.21
78369;BMP280;71113;43.092;-89.268;2023-09-19T23:09:22;97931.47;;;22.19
78369;BMP280;71113;43.092;-89.268;2023-09-19T23:11:48;97923.50;;;22.19
78369;BMP280;71113;43.092;-89.268;2023-09-19T23:14:15;97914.78;;;22.19
78369;BMP280;71113;43.092;-89.268;2023-09-19T23:16:40;97921.06;;;22.11
78369;BMP280;71113;43.092;-89.268;2023-09-19T23:19:18;97922.81;;;22.03
78369;BMP280;71113;43.092;-89.268;2023-09-19T23:21:53;97917.00;;;21.97
78369;BMP280;71113;43.092;-89.268;2023-09-19T23:24:20;97921.78;;;21.92
78369;BMP280;71113;43.092;-89.268;2023-09-19T23:26:46;97920.94;;;21.88
78369;BMP280;71113;43.092;-89.268;2023-09-19T23:29:14;97917.00;;;21.82
78369;BMP280;71113;43.092;-89.268;2023-09-19T23:31:40;97923.72;;;21.76
78369;BMP280;71113;43.092;-89.268;2023-09-19T23:34:10;97920.22;;;21.72
78369;BMP280;71113;43.092;-89.268;2023-09-19T23:36:36;97928.19;;;21.72
78369;BMP280;71113;43.092;-89.268;2023-09-19T23:39:01;97928.19;;;21.72
78369;BMP280;71113;43.092;-89.268;2023-09-19T23:41:27;97933.06;;;21.69
78369;BMP280;71113;43.092;-89.268;2023-09-19T23:43:55;97934.16;;;21.68
78369;BMP280;71113;43.092;-89.268;2023-09-19T23:46:23;97932.19;;;21.65
78369;BMP280;71113;43.092;-89.268;2023-09-19T23:48:51;97934.78;;;21.62
78369;BMP280;71113;43.092;-89.268;2023-09-19T23:51:17;97934.00;;;21.61
78369;BMP280;71113;43.092;-89.268;2023-09-19T23:53:45;97936.22;;;21.59
78369;BMP280;71113;43.092;-89.268;2023-09-19T23:56:11;97943.00;;;21.57
78369;BMP280;71113;43.092;-89.268;2023-09-19T23:58:40;97943.38;;;21.55
